createdAt,value
2022-10-24T00:00:46.114Z,98678.81
2022-10-24T00:05:49.228Z,98681.34
2022-10-24T00:10:51.834Z,98696.84
2022-10-24T00:15:54.391Z,98695.22
2022-10-24T00:20:56.962Z,98690.94
2022-10-24T00:26:04.382Z,98689.25
2022-10-24T00:31:08.745Z,98688.44
2022-10-24T00:36:18.068Z,98684.19
2022-10-24T00:41:20.523Z,98683.25
2022-10-24T00:46:23.063Z,98680.75
2022-10-24T00:51:33.409Z,98685.03
2022-10-24T00:56:57.829Z,98686.75
2022-10-24T01:02:00.334Z,98679.06
2022-10-24T01:07:19.728Z,98673.13
2022-10-24T01:12:59.202Z,98677.59
2022-10-24T01:18:07.627Z,98680.19
2022-10-24T01:23:15.869Z,98689.63
2022-10-24T01:29:02.802Z,98700.81
2022-10-24T01:34:18.613Z,98699.22
2022-10-24T01:39:25.599Z,98673.59
2022-10-24T01:44:33.829Z,98695.69
2022-10-24T01:49:40.276Z,98699.06
2022-10-24T01:54:44.905Z,98681.31
2022-10-24T01:59:48.743Z,98689.03
2022-10-24T02:04:51.232Z,98695.84
2022-10-24T02:10:00.384Z,98694.16
2022-10-24T02:15:25.265Z,98706.19
2022-10-24T02:20:33.605Z,98698.50
2022-10-24T02:25:39.772Z,98713.91
2022-10-24T02:31:06.788Z,98712.22
2022-10-24T02:36:14.355Z,98714.81
2022-10-24T02:41:22.744Z,98721.69
2022-10-24T02:46:26.913Z,98719.06
2022-10-24T02:51:32.879Z,98710.63
2022-10-24T02:56:40.150Z,98732.88
2022-10-24T03:01:42.791Z,98713.22
2022-10-24T03:06:45.653Z,98742.28
2022-10-24T03:11:48.351Z,98743.25
2022-10-24T03:16:50.974Z,98738.91
2022-10-24T03:21:53.557Z,98739.72
2022-10-24T03:26:56.259Z,98753.38
2022-10-24T03:31:58.861Z,98744.00
2022-10-24T03:37:01.353Z,98759.41
2022-10-24T03:42:04.165Z,98761.09
2022-10-24T03:47:06.912Z,98767.13
2022-10-24T03:52:09.522Z,98770.59
2022-10-24T03:57:12.283Z,98771.41
2022-10-24T04:02:15.088Z,98776.56
2022-10-24T04:07:17.721Z,98760.34
2022-10-24T04:12:20.240Z,98749.22
2022-10-24T04:17:22.853Z,98791.13
2022-10-24T04:22:25.474Z,98787.72
2022-10-24T04:27:28.167Z,98797.09
2022-10-24T04:32:30.751Z,98791.13
2022-10-24T04:37:33.340Z,98804.78
2022-10-24T04:42:36.221Z,98803.88
2022-10-24T04:47:38.835Z,98823.59
2022-10-24T04:52:41.973Z,98835.59
2022-10-24T04:57:44.685Z,98833.88
2022-10-24T05:02:47.512Z,98835.53
2022-10-24T05:07:50.150Z,98849.25
2022-10-24T05:12:52.683Z,98842.38
2022-10-24T05:17:55.260Z,98857.81
2022-10-24T05:22:57.733Z,98849.25
2022-10-24T05:28:00.323Z,98867.19
2022-10-24T05:33:02.868Z,98868.97
2022-10-24T05:38:05.461Z,98877.50
2022-10-24T05:43:08.313Z,98876.59
2022-10-24T05:48:10.972Z,98880.78
2022-10-24T05:53:13.924Z,98893.56
2022-10-24T05:58:21.101Z,98880.81
2022-10-24T06:03:24.029Z,98887.56
2022-10-24T06:08:26.565Z,98893.50
2022-10-24T06:13:33.826Z,98897.81
2022-10-24T06:18:39.709Z,98911.44
2022-10-24T06:23:42.353Z,98902.84
2022-10-24T06:28:45.126Z,98915.63
2022-10-24T06:33:47.784Z,98906.75
2022-10-24T06:38:50.795Z,98919.50
2022-10-24T06:43:54.030Z,98919.53
2022-10-24T06:48:56.927Z,98921.22
2022-10-24T06:54:00.042Z,98907.56
2022-10-24T06:59:02.623Z,98924.59
2022-10-24T07:04:05.544Z,98942.44
2022-10-24T07:09:11.467Z,98938.13
2022-10-24T07:14:16.974Z,98948.44
2022-10-24T07:19:19.532Z,98936.31
2022-10-24T07:24:22.779Z,98933.78
2022-10-24T07:29:25.740Z,98946.06
2022-10-24T07:34:28.296Z,98949.75
2022-10-24T07:39:30.874Z,98922.56
2022-10-24T07:44:33.425Z,98956.00
2022-10-24T07:49:36.951Z,98952.66
2022-10-24T07:54:39.509Z,98960.41
2022-10-24T07:59:42.847Z,98947.72
2022-10-24T08:04:45.688Z,98982.09
2022-10-24T08:09:51.018Z,98977.66
2022-10-24T08:14:55.868Z,98980.88
2022-10-24T08:19:58.688Z,98987.66
2022-10-24T08:25:02.429Z,98925.19
2022-10-24T08:30:05.731Z,99003.63
2022-10-24T08:35:08.752Z,99003.72
2022-10-24T08:40:19.332Z,98993.16
2022-10-24T08:45:39.105Z,98990.13
2022-10-24T08:50:47.476Z,99026.81
2022-10-24T08:55:56.052Z,99041.13
2022-10-24T09:01:02.131Z,99043.75
2022-10-24T09:06:12.528Z,98991.53
2022-10-24T09:11:27.121Z,99058.28
2022-10-24T09:16:29.809Z,99069.34
2022-10-24T09:21:32.458Z,99022.25
2022-10-24T09:26:37.724Z,99069.28
2022-10-24T09:31:40.588Z,99073.50
2022-10-24T09:36:44.696Z,99077.78
2022-10-24T09:41:47.386Z,99092.34
2022-10-24T09:46:49.989Z,99101.72
2022-10-24T09:52:20.141Z,99085.41
2022-10-24T09:57:25.780Z,99084.47
2022-10-24T10:02:34.758Z,99095.63
2022-10-24T10:07:41.695Z,99098.28
2022-10-24T10:12:46.789Z,99101.69
2022-10-24T10:17:52.363Z,99100.72
2022-10-24T10:22:54.925Z,99100.66
2022-10-24T10:28:01.041Z,99103.97
2022-10-24T10:33:40.336Z,99097.88
2022-10-24T10:39:23.699Z,99114.97
2022-10-24T10:44:59.416Z,99111.59
2022-10-24T10:50:09.139Z,99121.16
2022-10-24T10:55:14.463Z,99113.22
2022-10-24T11:00:34.960Z,99110.38
2022-10-24T11:05:58.824Z,99105.19
2022-10-24T11:11:06.979Z,99113.97
2022-10-24T11:16:21.745Z,99105.78
2022-10-24T11:21:27.419Z,99121.44
2022-10-24T11:26:44.998Z,99127.47
2022-10-24T11:32:13.710Z,99129.94
2022-10-24T11:37:28.126Z,99127.22
2022-10-24T11:42:36.577Z,99123.66
2022-10-24T11:48:06.985Z,99120.22
2022-10-24T11:53:25.404Z,99134.75
2022-10-24T11:58:32.232Z,99131.22
2022-10-24T12:03:56.227Z,99127.44
2022-10-24T12:09:10.851Z,99142.88
2022-10-24T12:14:21.989Z,99146.34
2022-10-24T12:19:26.602Z,99160.25
2022-10-24T12:24:39.102Z,99170.84
2022-10-24T12:29:43.639Z,99171.06
2022-10-24T12:35:12.227Z,99176.19
2022-10-24T12:40:45.729Z,99176.19
2022-10-24T12:45:48.355Z,99181.31
2022-10-24T12:51:00.628Z,99171.09
2022-10-24T12:56:13.098Z,99202.78
2022-10-24T13:01:33.565Z,99194.22
2022-10-24T13:07:12.076Z,99207.16
2022-10-24T13:12:33.324Z,99211.56
2022-10-24T13:17:48.446Z,99212.41
2022-10-24T13:23:00.610Z,99230.44
2022-10-24T13:28:24.455Z,99233.03
2022-10-24T13:33:40.555Z,99229.63
2022-10-24T13:39:02.311Z,99240.75
2022-10-24T13:44:33.300Z,99252.78
2022-10-24T13:49:54.304Z,99257.88
2022-10-24T13:55:05.568Z,99265.59
2022-10-24T14:00:19.000Z,99270.69
2022-10-24T14:05:44.810Z,99270.66
2022-10-24T14:10:48.300Z,99274.06
2022-10-24T14:15:54.988Z,99286.00
2022-10-24T14:21:00.909Z,99279.06
2022-10-24T14:26:07.099Z,99278.13
2022-10-24T14:31:20.838Z,99298.59
2022-10-24T14:36:27.688Z,99280.50
2022-10-24T14:41:32.926Z,99314.72
2022-10-24T14:46:37.112Z,99284.63
2022-10-24T14:51:41.520Z,99288.00
2022-10-24T14:56:44.198Z,99321.47
2022-10-24T15:02:32.668Z,99335.13
2022-10-24T15:07:42.478Z,99339.28
2022-10-24T15:12:56.973Z,99358.00
2022-10-24T15:18:09.682Z,99333.78
2022-10-24T15:23:44.673Z,99368.91
2022-10-24T15:28:56.052Z,99371.25
2022-10-24T15:33:58.689Z,99342.63
2022-10-24T15:39:06.476Z,99379.63
2022-10-24T15:44:25.709Z,99389.91
2022-10-24T15:49:29.129Z,99383.75
2022-10-24T15:54:31.737Z,99386.75
2022-10-24T15:59:34.277Z,99403.66
2022-10-24T16:04:40.370Z,99402.69
2022-10-24T16:09:42.981Z,99411.78
2022-10-24T16:14:45.558Z,99416.94
2022-10-24T16:19:48.076Z,99411.81
2022-10-24T16:24:51.531Z,99426.13
2022-10-24T16:29:54.401Z,99426.88
2022-10-24T16:34:57.676Z,99431.88
2022-10-24T16:40:00.645Z,99429.94
2022-10-24T16:45:04.193Z,99429.69
2022-10-24T16:50:07.517Z,99412.47
2022-10-24T16:55:13.088Z,99444.94
2022-10-24T17:00:17.710Z,99454.97
2022-10-24T17:05:23.812Z,99463.22
2022-10-24T17:10:26.416Z,99454.38
2022-10-24T17:15:29.013Z,99476.63
2022-10-24T17:20:31.898Z,99473.88
2022-10-24T17:25:35.114Z,99459.13
2022-10-24T17:30:37.792Z,99480.50
2022-10-24T17:35:47.554Z,99482.94
2022-10-24T17:40:50.501Z,99485.28
2022-10-24T17:45:54.836Z,99486.88
2022-10-24T17:50:58.817Z,99499.53
2022-10-24T17:56:01.528Z,99495.78
2022-10-24T18:01:04.401Z,99504.28
2022-10-24T18:06:07.661Z,99509.47
2022-10-24T18:11:11.921Z,99491.28
2022-10-24T18:16:17.062Z,99509.28
2022-10-24T18:21:25.415Z,99497.13
2022-10-24T18:26:28.227Z,99509.78
2022-10-24T18:31:31.549Z,99524.19
2022-10-24T18:36:34.138Z,99525.75
2022-10-24T18:41:56.032Z,99524.06
2022-10-24T18:47:01.509Z,99525.00
2022-10-24T18:52:10.168Z,99537.41
2022-10-24T18:57:23.854Z,99511.38
2022-10-24T19:02:38.241Z,99542.84
2022-10-24T19:07:41.326Z,99542.56
2022-10-24T19:12:44.245Z,99544.34
2022-10-24T19:17:48.295Z,99560.53
2022-10-24T19:22:51.607Z,99549.22
2022-10-24T19:27:54.547Z,99552.03
2022-10-24T19:32:57.262Z,99555.41
2022-10-24T19:38:00.231Z,99560.41
2022-10-24T19:43:02.889Z,99550.69
2022-10-24T19:48:05.788Z,99569.50
2022-10-24T19:53:08.417Z,99569.84
2022-10-24T19:58:13.588Z,99565.59
2022-10-24T20:03:16.599Z,99577.88
2022-10-24T20:08:19.149Z,99580.84
2022-10-24T20:13:22.177Z,99573.41
2022-10-24T20:18:26.808Z,99574.97
2022-10-24T20:23:29.406Z,99583.00
2022-10-24T20:28:40.498Z,99587.19
2022-10-24T20:33:44.713Z,99591.22
2022-10-24T20:38:47.521Z,99597.16
2022-10-24T20:43:53.776Z,99595.41
2022-10-24T20:48:57.158Z,99602.00
2022-10-24T20:53:59.958Z,99618.16
2022-10-24T20:59:02.502Z,99609.75
2022-10-24T21:04:05.258Z,99621.75
2022-10-24T21:09:07.926Z,99614.69
2022-10-24T21:14:12.670Z,99617.09
2022-10-24T21:19:15.394Z,99631.59
2022-10-24T21:24:18.556Z,99639.88
2022-10-24T21:29:32.754Z,99641.19
2022-10-24T21:34:36.411Z,99635.81
2022-10-24T21:39:39.058Z,99639.16
2022-10-24T21:44:41.695Z,99644.88
2022-10-24T21:49:44.224Z,99652.19
2022-10-24T21:54:47.116Z,99655.06
2022-10-24T21:59:50.112Z,99654.88
2022-10-24T22:04:52.674Z,99661.34
2022-10-24T22:09:55.266Z,99669.09
2022-10-24T22:14:57.800Z,99670.91
2022-10-24T22:20:00.421Z,99687.84
2022-10-24T22:25:03.110Z,99671.94
2022-10-24T22:30:06.360Z,99683.13
2022-10-24T22:35:10.461Z,99686.00
2022-10-24T22:40:22.836Z,99682.88
2022-10-24T22:45:25.857Z,99684.69
2022-10-24T22:50:40.431Z,99694.50
2022-10-24T22:56:04.624Z,99686.06
2022-10-24T23:01:37.877Z,99701.28
2022-10-24T23:06:49.010Z,99696.22
2022-10-24T23:11:51.901Z,99683.66
2022-10-24T23:16:59.763Z,99677.91
2022-10-24T23:22:27.171Z,99698.00
2022-10-24T23:27:35.002Z,99702.75
2022-10-24T23:32:39.028Z,99690.19
2022-10-24T23:37:47.384Z,99697.00
2022-10-24T23:42:51.470Z,99695.47
2022-10-24T23:48:15.614Z,99698.84
2022-10-24T23:53:49.037Z,99710.59
2022-10-24T23:58:52.577Z,99704.13
